Latest Weather Observations for Roebourne Airport

IDW60801

Issued at 11:03 pm WST Saturday 23 January 2021 (issued every 10 minutes, with the page automatically refreshed every 10 minutes)

About weather observations | Map of weather stations | Latest weather observations for WA | Other Formats
Station Details ID: 004090 Name: ROEBOURNE AERO Lat: -20.76 Lon: 117.16 Height: 10.7 m
Data from the previous 72 hours. | See also: Recent months at Roebourne Airport
Date/Time
WST
Temp
°C
App
Temp
°C
Dew
Point
°C
Rel
Hum
%
Delta-T
°C
Wind Press
QNH
hPa
Press
MSL
hPa
Rain since
9am
mm
Dir  Spd
km/h
Gust
km/h
Spd
kts
Gust
kts
23/11:00pm 29.7 28.5 22.2 64 5.1 WSW 32 41 17 22 1004.8 1004.7 0.0
23/10:30pm 29.8 29.7 22.3 64 5.1 WSW 26 37 14 20 1005.0 1004.9 0.0
23/10:00pm 29.9 29.7 22.1 63 5.3 WSW 26 35 14 19 1004.9 1004.8 0.0
23/09:30pm 30.1 28.9 22.3 63 5.3 W 32 41 17 22 1004.6 1004.5 0.0
23/09:00pm 30.4 29.2 22.3 62 5.5 W 32 41 17 22 1004.6 1004.5 0.0
23/08:30pm 30.6 29.4 22.2 61 5.7 W 32 41 17 22 1004.4 1004.3 0.0
23/08:00pm 31.2 29.7 21.7 57 6.4 W 32 43 17 23 1004.1 1004.0 0.0
23/07:30pm 31.6 30.0 21.5 55 6.8 W 32 39 17 21 1003.8 1003.7 0.0
23/07:00pm 32.2 29.2 21.4 53 7.3 W 39 46 21 25 1003.2 1003.1 0.0
23/06:30pm 33.6 30.4 21.7 49 8.1 W 41 52 22 28 1002.7 1002.6 0.0
23/06:00pm 34.8 31.5 21.5 46 9.1 W 41 54 22 29 1002.3 1002.2 0.0
23/05:30pm 35.5 32.1 21.4 44 9.6 W 41 54 22 29 1002.0 1001.9 0.0
23/05:00pm 36.2 32.0 21.6 42 10.0 W 46 59 25 32 1001.7 1001.6 0.0
23/04:30pm 36.9 33.0 21.5 41 10.5 WNW 44 54 24 29 1001.4 1001.3 0.0
23/04:00pm 37.4 32.9 19.8 35 11.8 WNW 43 54 23 29 1001.3 1001.2 0.0
23/03:30pm 38.0 33.7 20.3 35 11.9 WNW 43 54 23 29 1001.3 1001.2 0.0
23/03:16pm 39.8 36.3 20.5 32 13.1 WNW 39 50 21 27 1001.3 1001.2 0.0
23/03:00pm 38.6 34.1 19.9 33 12.6 NW 43 56 23 30 1001.3 1001.2 0.0
23/02:30pm 39.6 36.3 19.3 30 13.6 WNW 35 52 19 28 1001.3 1001.2 0.0
23/02:20pm 39.6 36.1 18.8 30 13.8 WNW 35 44 19 24 1001.3 1001.2 0.0
23/02:05pm 41.1 39.1 18.4 27 15.1 W 26 48 14 26 1001.3 1001.2 0.0
23/02:00pm 40.5 35.9 9.8 16 18.2 W 24 44 13 24 1001.2 1001.1 0.0
23/01:30pm 40.3 36.1 9.6 16 18.0 SW 22 33 12 18 1001.7 1001.6 0.0
23/01:00pm 39.4 35.3 11.5 19 16.9 WSW 24 37 13 20 1002.0 1001.9 0.0
23/12:30pm 39.2 36.2 13.6 22 15.9 WSW 22 32 12 17 1002.3 1002.2 0.0
23/12:00pm 38.0 36.5 15.2 26 14.4 SW 17 30 9 16 1002.7 1002.6 0.0
23/11:30am 36.4 35.4 16.5 30 12.7 WSW 17 30 9 16 1003.1 1003.0 0.0
23/11:00am 35.1 34.6 17.8 36 11.2 W 17 26 9 14 1003.5 1003.4 0.0
23/10:30am 34.6 34.5 17.8 37 10.9 WSW 15 26 8 14 1003.8 1003.7 0.0
23/10:00am 33.7 33.2 17.8 38 10.3 WSW 17 28 9 15 1003.9 1003.8 0.0
23/09:30am 33.2 33.0 18.6 42 9.5 WSW 17 26 9 14 1004.0 1003.9 0.0
23/09:00am 32.2 32.5 19.5 47 8.4 SW 17 24 9 13 1003.9 1003.8 0.0
23/08:30am 30.8 30.5 19.2 50 7.6 WSW 19 26 10 14 1003.8 1003.7 0.0
23/08:00am 29.7 29.2 19.1 53 6.9 W 20 28 11 15 1003.6 1003.5 0.0
23/07:30am 28.4 27.6 19.3 57 5.9 W 22 26 12 14 1003.4 1003.3 0.0
23/07:00am 27.1 29.3 19.2 62 5.1 WNW 6 13 3 7 1003.3 1003.2 0.0
23/06:30am 26.7 29.1 18.8 62 5.1 SW 4 9 2 5 1002.6 1002.5 0.0
23/06:00am 26.5 26.2 19.1 64 4.8 W 19 24 10 13 1001.9 1001.8 0.0
23/05:30am 26.3 26.8 19.2 65 4.6 W 15 17 8 9 1001.7 1001.6 0.0
23/05:00am 26.5 27.2 19.6 66 4.5 W 15 19 8 10 1001.3 1001.2 0.0
23/04:30am 26.9 28.6 21.0 70 3.9 W 13 15 7 8 1001.3 1001.2 0.0
23/04:00am 27.6 29.8 21.9 71 3.8 WNW 13 17 7 9 1001.3 1001.2 0.0
23/03:30am 27.6 31.3 23.2 77 3.0 WNW 9 11 5 6 1001.3 1001.2 0.0
23/03:00am 27.6 32.1 23.0 76 3.1 SW 4 7 2 4 1001.3 1001.2 0.0
23/02:30am 28.2 32.2 23.1 74 3.5 S 7 11 4 6 1001.5 1001.4 0.0
23/02:00am 29.0 30.5 23.7 73 3.7 WSW 22 28 12 15 1001.2 1001.1 0.0
23/01:30am 29.1 31.3 23.3 71 4.0 W 17 24 9 13 1001.0 1000.9 0.0
23/01:00am 29.0 31.7 23.4 72 3.9 SW 15 22 8 12 1001.1 1001.0 0.0
23/12:30am 29.1 30.9 23.3 71 4.0 WSW 19 28 10 15 1001.4 1001.3 0.0
23/12:00am 29.6 30.9 22.6 66 4.8 WSW 20 28 11 15 1001.8 1001.7 0.0
 
Date/Time
WST
Temp
°C
App
Temp
°C
Dew
Point
°C
Rel
Hum
%
Delta-T
°C
Wind Press
QNH
hPa
Press
MSL
hPa
Rain since
9am
mm
Dir  Spd
km/h
Gust
km/h
Spd
kts
Gust
kts
22/11:30pm 29.2 31.6 22.2 66 4.7 SW 13 17 7 9 1002.4 1002.3 0.0
22/11:00pm 29.6 32.4 22.3 65 5.0 W 11 19 6 10 1002.9 1002.8 0.0
22/10:30pm 29.7 32.1 21.6 61 5.4 WNW 11 13 6 7 1003.2 1003.1 0.0
22/10:00pm 29.8 31.3 22.0 63 5.3 WNW 17 20 9 11 1003.1 1003.0 0.0
22/09:30pm 29.9 29.5 21.0 59 5.9 WNW 24 28 13 15 1002.7 1002.6 0.0
22/09:00pm 28.1 30.3 22.6 72 3.7 NW 15 20 8 11 1002.3 1002.2 0.0
22/08:30pm 27.4 29.1 23.0 77 3.0 N 19 20 10 11 1002.2 1002.1 0.0
22/08:00pm 26.6 28.0 22.9 80 2.5 NNE 20 28 11 15 1003.1 1003.0 0.0
22/07:30pm 27.6 27.9 21.6 70 4.0 E 22 35 12 19 1003.8 1003.7 0.0
22/07:08pm 27.8 28.7 20.9 66 4.6 SE 17 32 9 17 1003.3 1003.2 0.0
22/07:00pm 32.8 33.7 23.4 57 6.5 W 24 39 13 21 1002.4 1002.3 0.0
22/06:58pm 32.8 33.0 23.4 57 6.5 W 28 41 15 22 1002.2 1002.1 0.0
22/06:30pm 33.4 32.4 23.7 56 6.8 W 35 44 19 24 1000.2 1000.1 0.0
22/06:00pm 34.2 30.9 21.6 47 8.6 WNW 41 52 22 28 999.7 999.6 0.0
22/05:30pm 34.8 32.6 23.5 52 7.9 WNW 41 50 22 27 999.4 999.3 0.0
22/05:00pm 35.5 33.8 23.1 48 8.6 WNW 37 48 20 26 999.6 999.5 0.0
22/04:30pm 36.4 34.2 23.6 47 9.0 WNW 41 50 22 27 1000.0 999.9 0.0
22/04:00pm 36.7 35.2 21.7 42 10.3 WNW 32 43 17 23 1000.2 1000.1 0.0
22/03:30pm 36.0 34.7 22.5 45 9.3 NNW 33 43 18 23 1000.6 1000.5 0.0
22/03:00pm 35.8 34.6 20.9 42 10.1 NW 28 37 15 20 1001.0 1000.9 0.0
22/02:30pm 36.1 35.3 20.8 41 10.3 NNW 26 35 14 19 1001.0 1000.9 0.0
22/02:00pm 36.3 35.7 20.5 39 10.7 NNW 24 39 13 21 1001.4 1001.3 0.0
22/01:30pm 36.0 34.7 19.9 39 10.8 N 26 35 14 19 1001.9 1001.8 0.0
22/01:00pm 37.0 37.8 20.7 38 11.1 N 17 28 9 15 1002.3 1002.2 0.0
22/12:30pm 37.1 37.8 17.1 30 12.9 WSW 9 20 5 11 1003.0 1002.9 0.0
22/12:00pm 37.1 37.7 17.6 31 12.7 SW 11 17 6 9 1003.5 1003.4 0.0
22/11:30am 36.2 36.8 16.9 32 12.4 ESE 9 17 5 9 1004.1 1004.0 0.0
22/11:00am 35.6 36.0 17.3 33 11.8 S 11 17 6 9 1004.7 1004.6 0.0
22/10:30am 34.5 35.4 18.5 38 10.4 SSW 11 19 6 10 1004.8 1004.7 0.0
22/10:00am 33.9 35.7 20.3 45 9.1 S 11 15 6 8 1005.2 1005.1 0.0
22/09:30am 32.7 35.3 21.9 53 7.3 S 11 17 6 9 1005.6 1005.5 0.0
22/09:00am 30.9 33.4 22.5 61 5.7 SSW 13 17 7 9 1005.6 1005.5 0.0
22/08:30am 29.8 31.8 22.3 64 5.1 SW 15 17 8 9 1005.7 1005.6 0.0
22/08:00am 29.2 32.2 23.4 71 4.0 SW 13 19 7 10 1006.0 1005.9 0.0
22/07:30am 28.6 31.8 23.1 72 3.8 SW 11 13 6 7 1006.1 1006.0 0.0
22/07:00am 28.0 32.1 23.2 75 3.3 SSW 7 9 4 5 1005.9 1005.8 0.0
22/06:30am 27.2 29.9 22.8 77 3.0 SW 13 15 7 8 1005.7 1005.6 0.0
22/06:00am 26.8 30.4 22.4 77 3.0 SE 7 9 4 5 1005.4 1005.3 0.0
22/05:30am 26.7 29.1 22.3 77 3.0 SSE 13 15 7 8 1005.0 1004.9 0.0
22/05:00am 27.5 29.4 21.3 69 4.1 SE 13 17 7 9 1004.6 1004.5 0.0
22/04:30am 27.5 29.8 21.3 69 4.1 ESE 11 15 6 8 1004.3 1004.2 0.0
22/04:00am 27.3 29.2 21.3 69 4.0 SE 13 19 7 10 1003.8 1003.7 0.0
22/03:30am 27.1 29.0 21.4 71 3.8 SE 13 15 7 8 1003.4 1003.3 0.0
22/03:00am 27.0 29.4 22.2 75 3.2 ESE 13 17 7 9 1003.6 1003.5 0.0
22/02:30am 27.4 29.5 21.7 71 3.8 SE 13 17 7 9 1003.5 1003.4 0.0
22/02:00am 27.4 30.5 22.1 73 3.6 E 9 11 5 6 1003.9 1003.8 0.0
22/01:30am 27.1 31.9 22.1 74 3.4 CALM 0 6 0 3 1004.2 1004.1 0.0
22/01:00am 27.2 30.4 22.4 75 3.2 ESE 9 11 5 6 1005.0 1004.9 0.0
22/12:30am 27.2 30.9 22.6 76 3.1 NW 7 9 4 5 1005.3 1005.2 0.0
22/12:00am 26.9 31.4 22.3 76 3.1 WSW 2 7 1 4 1005.9 1005.8 0.0
 
Date/Time
WST
Temp
°C
App
Temp
°C
Dew
Point
°C
Rel
Hum
%
Delta-T
°C
Wind Press
QNH
hPa
Press
MSL
hPa
Rain since
9am
mm
Dir  Spd
km/h
Gust
km/h
Spd
kts
Gust
kts
21/11:30pm 26.8 29.9 22.8 79 2.7 SW 11 15 6 8 1006.4 1006.3 0.0
21/11:00pm 26.8 30.8 23.1 80 2.5 WSW 7 11 4 6 1007.1 1007.0 0.0
21/10:30pm 26.6 29.3 22.9 80 2.5 WSW 13 19 7 10 1006.8 1006.7 0.0
21/10:00pm 26.5 29.5 22.6 79 2.6 SSW 11 15 6 8 1006.5 1006.4 0.0
21/09:30pm 26.4 29.6 22.3 78 2.8 WSW 9 15 5 8 1006.4 1006.3 0.0
21/09:00pm 26.4 28.1 22.3 78 2.8 W 17 22 9 12 1006.6 1006.5 0.0
21/08:30pm 25.0 23.6 22.3 85 1.8 SW 33 46 18 25 1006.4 1006.3 0.0
21/08:21pm 24.6 23.3 22.1 86 1.7 SSW 32 48 17 26 1006.8 1006.7 0.0
21/08:08pm 26.7 24.9 21.5 73 3.5 S 33 56 18 30 1007.1 1007.0 0.0
21/08:00pm 27.7 27.2 20.8 66 4.6 SSW 24 50 13 27 1007.6 1007.5 0.0
21/07:58pm 28.4 29.2 20.7 63 5.1 SW 17 50 9 27 1007.6 1007.5 0.0
21/07:30pm 31.5 34.7 24.9 68 4.6 NNW 17 20 9 11 1005.9 1005.8 0.0
21/07:00pm 31.8 33.9 25.4 69 4.5 NNW 24 30 13 16 1005.2 1005.1 0.0
21/06:30pm 32.0 35.2 25.8 69 4.4 NNW 20 26 11 14 1005.2 1005.1 0.0
21/06:00pm 32.2 33.9 25.3 67 4.9 NNW 26 33 14 18 1004.3 1004.2 0.0
21/05:30pm 33.0 33.7 25.5 64 5.3 N 32 43 17 23 1003.2 1003.1 0.0
21/05:00pm 34.0 33.9 24.6 58 6.6 N 33 41 18 22 1003.4 1003.3 0.0
21/04:30pm 34.6 33.9 24.8 56 6.9 N 37 44 20 24 1003.0 1002.9 0.0
21/04:00pm 35.1 35.1 24.7 55 7.4 N 33 44 18 24 1002.8 1002.7 0.0
21/03:30pm 35.1 35.1 24.7 55 7.4 N 33 46 18 25 1003.1 1003.0 0.0
21/03:00pm 36.3 37.4 26.1 55 7.4 N 32 44 17 24 1003.4 1003.3 0.0
21/02:30pm 36.1 35.5 24.3 50 8.3 NNE 35 43 19 23 1004.1 1004.0 0.0
21/02:00pm 36.7 37.6 25.2 51 8.2 NNE 30 39 16 21 1004.4 1004.3 0.0
21/01:30pm 36.3 35.6 23.2 47 9.1 NNE 32 41 17 22 1004.6 1004.5 0.0
21/01:00pm 35.7 35.8 24.6 52 7.9 NNE 32 39 17 21 1004.8 1004.7 0.0
21/12:30pm 36.6 35.6 22.7 44 9.6 NNE 32 41 17 22 1005.0 1004.9 0.0
21/12:00pm 35.9 36.5 24.2 51 8.3 NNE 28 35 15 19 1005.0 1004.9 0.0
21/11:30am 36.0 37.1 24.9 52 7.9 NNE 28 39 15 21 1005.4 1005.3 0.0
21/11:00am 36.9 39.0 24.7 49 8.7 NNE 22 28 12 15 1005.6 1005.5 0.0
21/10:30am 36.3 37.7 22.5 45 9.5 NE 19 28 10 15 1005.9 1005.8 0.0
21/10:00am 36.5 38.2 23.4 47 9.2 ENE 20 33 11 18 1006.1 1006.0 0.0
21/09:30am 36.8 36.8 19.7 36 11.4 ENE 19 24 10 13 1006.2 1006.1 0.0
21/09:00am 35.3 34.9 18.0 36 11.3 ENE 17 20 9 11 1006.2 1006.1 0.0
21/08:30am 36.0 36.0 17.2 33 12.1 E 13 20 7 11 1006.0 1005.9 0.0
21/08:00am 35.9 38.0 18.9 36 11.2 SSE 6 9 3 5 1005.9 1005.8 0.0
21/07:30am 34.1 35.6 19.0 41 9.9 S 9 11 5 6 1005.8 1005.7 0.0
21/07:00am 31.9 33.5 19.2 47 8.3 SSW 9 11 5 6 1005.6 1005.5 0.0
21/06:30am 29.5 30.6 18.0 50 7.3 SSW 9 11 5 6 1005.4 1005.3 0.0
21/06:00am 27.1 29.1 16.1 51 6.8 CALM 0 0 0 0 1005.2 1005.1 0.0
21/05:30am 28.1 30.4 16.7 50 7.1 CALM 0 6 0 3 1004.9 1004.8 0.0
21/05:00am 27.9 29.0 16.5 50 7.1 SSE 6 7 3 4 1004.6 1004.5 0.0
21/04:30am 28.7 29.5 17.2 49 7.2 W 9 9 5 5 1004.5 1004.4 0.0
21/04:00am 29.2 31.1 16.7 46 7.8 NW 2 7 1 4 1004.3 1004.2 0.0
21/03:30am 29.8 30.8 16.9 45 8.1 NW 7 7 4 4 1004.3 1004.2 0.0
21/03:00am 29.7 31.9 16.5 45 8.3 CALM 0 0 0 0 1004.3 1004.2 0.0
21/02:30am 29.7 31.9 16.5 45 8.2 CALM 0 7 0 4 1004.3 1004.2 0.0
21/02:00am 31.8 33.0 17.3 42 9.3 WSW 7 9 4 5 1004.3 1004.2 0.0
21/01:30am 31.5 32.2 17.0 41 9.2 W 9 11 5 6 1004.2 1004.1 0.0
21/01:00am 31.9 33.0 17.0 41 9.5 W 7 7 4 4 1004.5 1004.4 0.0
21/12:30am 32.2 33.2 16.9 40 9.7 WSW 7 9 4 5 1005.0 1004.9 0.0
21/12:00am 32.8 32.9 16.6 38 10.3 WSW 11 13 6 7 1005.3 1005.2 0.0
 
Date/Time
WST
Temp
°C
App
Temp
°C
Dew
Point
°C
Rel
Hum
%
Delta-T
°C
Wind Press
QNH
hPa
Press
MSL
hPa
Rain since
9am
mm
Dir  Spd
km/h
Gust
km/h
Spd
kts
Gust
kts
20/11:30pm 32.9 33.1 16.7 38 10.3 WSW 11 13 6 7 1005.8 1005.7 0.0

Other formats

Comma delimited format used in spreadsheet applications
http://www.bom.gov.au/fwo/IDW60801/IDW60801.94308.axf

JavaScript Object Notation format (JSON) in row-major order
http://www.bom.gov.au/fwo/IDW60801/IDW60801.94308.json

Data quality

Most of these data are generated automatically and are frequently updated. Quality checks on data are not normally performed. It is possible for incorrect values to appear. Refer to information at About Latest Weather Observations and please check the disclaimer before using these data.